createdAt,value
2022-07-26T00:01:53.634Z,8.35
2022-07-26T00:04:21.482Z,4.82
2022-07-26T00:06:48.896Z,5.40
2022-07-26T00:09:17.413Z,5.75
2022-07-26T00:11:45.368Z,5.57
2022-07-26T00:14:13.145Z,7.68
2022-07-26T00:16:41.154Z,5.78
2022-07-26T00:19:09.098Z,5.00
2022-07-26T00:21:37.528Z,5.23
2022-07-26T00:24:09.005Z,8.82
2022-07-26T00:26:36.787Z,6.55
2022-07-26T00:29:06.312Z,6.07
2022-07-26T00:31:34.270Z,5.88
2022-07-26T00:34:01.970Z,5.93
2022-07-26T00:36:30.001Z,8.10
2022-07-26T00:38:57.633Z,5.60
2022-07-26T00:41:25.327Z,7.55
2022-07-26T00:44:00.203Z,9.02
2022-07-26T00:46:28.282Z,9.52
2022-07-26T00:48:56.009Z,6.77
2022-07-26T00:51:24.019Z,5.57
2022-07-26T00:53:51.551Z,5.55
2022-07-26T00:56:19.256Z,6.68
2022-07-26T00:58:47.070Z,6.32
2022-07-26T01:01:14.804Z,6.78
2022-07-26T01:03:42.421Z,5.30
2022-07-26T01:06:10.550Z,8.02
2022-07-26T01:08:38.489Z,5.03
2022-07-26T01:11:06.312Z,6.43
2022-07-26T01:13:35.461Z,7.75
2022-07-26T01:16:03.917Z,5.82
2022-07-26T01:18:31.457Z,6.07
2022-07-26T01:21:09.639Z,5.65
2022-07-26T01:23:42.767Z,7.03
2022-07-26T01:26:10.811Z,6.63
2022-07-26T01:28:39.593Z,7.55
2022-07-26T01:31:08.753Z,5.72
2022-07-26T01:33:36.434Z,8.45
2022-07-26T01:36:04.067Z,7.03
2022-07-26T01:38:31.584Z,6.07
2022-07-26T01:40:59.163Z,7.20
2022-07-26T01:43:26.947Z,7.78
2022-07-26T01:45:55.594Z,4.95
2022-07-26T01:48:23.488Z,7.47
2022-07-26T01:50:51.025Z,6.28
2022-07-26T01:53:18.729Z,7.03
2022-07-26T01:55:46.363Z,5.93
2022-07-26T01:58:13.922Z,7.25
2022-07-26T02:00:41.468Z,6.65
2022-07-26T02:03:09.199Z,7.80
2022-07-26T02:05:36.762Z,5.43
2022-07-26T02:08:04.622Z,6.95
2022-07-26T02:10:50.645Z,6.97
2022-07-26T02:13:18.535Z,7.03
2022-07-26T02:15:46.110Z,7.07
2022-07-26T02:18:13.796Z,9.60
2022-07-26T02:20:41.445Z,7.83
2022-07-26T02:23:09.000Z,7.97
2022-07-26T02:25:36.477Z,6.35
2022-07-26T02:28:04.394Z,7.10
2022-07-26T02:30:31.923Z,8.82
2022-07-26T02:32:59.560Z,6.30
2022-07-26T02:35:27.548Z,6.68
2022-07-26T02:37:55.167Z,7.57
2022-07-26T02:40:22.725Z,7.38
2022-07-26T02:42:50.382Z,7.88
2022-07-26T02:45:17.849Z,7.38
2022-07-26T02:47:50.013Z,8.73
2022-07-26T02:50:26.548Z,8.30
2022-07-26T02:52:54.945Z,8.63
2022-07-26T02:55:24.697Z,5.53
2022-07-26T02:57:52.987Z,7.50
2022-07-26T03:00:23.805Z,5.38
2022-07-26T03:02:51.872Z,5.35
2022-07-26T03:05:20.484Z,5.03
2022-07-26T03:07:48.486Z,6.72
2022-07-26T03:10:16.069Z,6.63
2022-07-26T03:12:43.973Z,6.70
2022-07-26T03:15:12.023Z,5.50
2022-07-26T03:17:39.712Z,7.10
2022-07-26T03:20:08.137Z,4.93
2022-07-26T03:22:35.751Z,11.73
2022-07-26T03:25:03.531Z,5.63
2022-07-26T03:27:31.246Z,7.75
2022-07-26T03:29:59.169Z,5.07
2022-07-26T03:32:27.162Z,5.63
2022-07-26T03:34:54.592Z,7.68
2022-07-26T03:37:23.426Z,6.20
2022-07-26T03:39:51.270Z,5.95
2022-07-26T03:42:19.026Z,4.93
2022-07-26T03:44:46.527Z,5.80
2022-07-26T03:47:14.360Z,5.43
2022-07-26T03:49:41.806Z,6.37
2022-07-26T03:52:11.114Z,5.43
2022-07-26T03:54:38.637Z,5.25
2022-07-26T03:57:06.129Z,5.25
2022-07-26T03:59:34.057Z,5.32
2022-07-26T04:02:01.891Z,5.18
2022-07-26T04:04:29.474Z,7.65
2022-07-26T04:06:57.252Z,7.32
2022-07-26T04:09:25.176Z,4.18
2022-07-26T04:11:52.826Z,5.47
2022-07-26T04:14:20.348Z,6.25
2022-07-26T04:16:48.133Z,6.88
2022-07-26T04:19:15.708Z,5.22
2022-07-26T04:21:43.316Z,5.10
2022-07-26T04:24:11.104Z,5.65
2022-07-26T04:26:39.144Z,4.70
2022-07-26T04:29:06.602Z,5.20
2022-07-26T04:31:36.351Z,4.60
2022-07-26T04:34:04.888Z,7.13
2022-07-26T04:36:33.178Z,5.13
2022-07-26T04:39:00.704Z,5.25
2022-07-26T04:41:28.447Z,7.47
2022-07-26T04:43:56.521Z,5.30
2022-07-26T04:46:25.573Z,9.48
2022-07-26T04:48:53.544Z,8.50
2022-07-26T04:51:21.594Z,9.27
2022-07-26T04:53:49.232Z,11.57
2022-07-26T04:56:16.934Z,9.10
2022-07-26T04:58:44.491Z,9.80
2022-07-26T05:01:12.363Z,7.47
2022-07-26T05:03:40.268Z,8.02
2022-07-26T05:06:08.226Z,7.68
2022-07-26T05:08:35.845Z,8.73
2022-07-26T05:11:04.403Z,6.18
2022-07-26T05:13:31.912Z,5.88
2022-07-26T05:16:01.720Z,7.18
2022-07-26T05:18:31.540Z,5.90
2022-07-26T05:20:59.733Z,7.15
2022-07-26T05:23:27.257Z,5.88
2022-07-26T05:25:55.605Z,7.30
2022-07-26T05:28:23.136Z,6.87
2022-07-26T05:30:50.980Z,8.27
2022-07-26T05:33:18.539Z,8.10
2022-07-26T05:35:46.107Z,6.82
2022-07-26T05:38:13.629Z,6.53
2022-07-26T05:40:41.242Z,6.95
2022-07-26T05:43:08.718Z,5.95
2022-07-26T05:45:36.335Z,8.48
2022-07-26T05:48:04.064Z,8.15
2022-07-26T05:50:33.167Z,7.03
2022-07-26T05:53:00.588Z,6.82
2022-07-26T05:55:28.317Z,8.13
2022-07-26T05:57:55.929Z,6.65
2022-07-26T06:00:23.600Z,7.07
2022-07-26T06:02:51.206Z,6.03
2022-07-26T06:05:19.112Z,8.38
2022-07-26T06:07:46.840Z,8.18
2022-07-26T06:10:14.675Z,5.60
2022-07-26T06:12:42.623Z,7.22
2022-07-26T06:15:15.398Z,5.50
2022-07-26T06:17:43.676Z,6.68
2022-07-26T06:20:11.897Z,6.77
2022-07-26T06:22:39.608Z,6.87
2022-07-26T06:25:07.630Z,5.45
2022-07-26T06:27:35.336Z,3.80
2022-07-26T06:30:02.867Z,4.20
2022-07-26T06:32:30.565Z,4.90
2022-07-26T06:34:58.128Z,5.38
2022-07-26T06:37:26.061Z,5.15
2022-07-26T06:39:53.825Z,4.87
2022-07-26T06:42:21.421Z,6.43
2022-07-26T06:44:48.866Z,6.15
2022-07-26T06:47:16.495Z,4.35
2022-07-26T06:49:45.119Z,5.50
2022-07-26T06:52:12.675Z,4.35
2022-07-26T06:54:40.163Z,5.37
2022-07-26T06:57:08.171Z,3.55
2022-07-26T06:59:35.997Z,2.78
2022-07-26T07:02:04.594Z,5.25
2022-07-26T07:04:33.452Z,5.60
2022-07-26T07:07:06.435Z,3.08
2022-07-26T07:09:35.173Z,6.00
2022-07-26T07:12:09.710Z,4.32
2022-07-26T07:14:39.554Z,3.85
2022-07-26T07:17:13.119Z,3.33
2022-07-26T07:19:42.629Z,4.00
2022-07-26T07:22:12.667Z,3.47
2022-07-26T07:24:42.067Z,4.63
2022-07-26T07:27:10.564Z,4.10
2022-07-26T07:29:41.391Z,3.45
2022-07-26T07:32:18.452Z,5.35
2022-07-26T07:34:50.351Z,6.07
2022-07-26T07:37:19.959Z,4.90
2022-07-26T07:39:48.749Z,3.30
2022-07-26T07:42:19.648Z,3.50
2022-07-26T07:44:47.737Z,4.13
2022-07-26T07:47:15.631Z,14.93
2022-07-26T07:49:43.457Z,6.07
2022-07-26T07:52:11.082Z,1999.90
2022-07-26T07:54:38.873Z,1999.90
2022-07-26T07:57:06.491Z,1999.90
2022-07-26T07:59:33.984Z,1999.90
2022-07-26T08:02:07.249Z,1999.90
2022-07-26T08:04:34.876Z,1376.22
2022-07-26T08:07:02.856Z,865.23
2022-07-26T08:09:30.479Z,1999.90
2022-07-26T08:12:02.339Z,1527.93
2022-07-26T08:14:30.270Z,1755.30
2022-07-26T08:16:58.074Z,1315.77
2022-07-26T08:19:26.463Z,1777.28
2022-07-26T08:21:56.821Z,1093.22
2022-07-26T08:24:24.839Z,1999.90
2022-07-26T08:26:54.411Z,1797.07
2022-07-26T08:29:21.991Z,1999.90
2022-07-26T08:31:51.026Z,1999.90
2022-07-26T08:34:19.004Z,1641.55
2022-07-26T08:37:14.362Z,1724.72
2022-07-26T08:39:34.287Z,1999.90
2022-07-26T08:42:04.371Z,1999.90
2022-07-26T08:44:32.010Z,1999.90
2022-07-26T08:46:59.752Z,1999.90
2022-07-26T08:49:27.534Z,1255.95
2022-07-26T08:51:57.153Z,1999.90
2022-07-26T08:54:24.844Z,1999.90
2022-07-26T08:56:53.394Z,1999.90
2022-07-26T08:59:23.235Z,1723.70
2022-07-26T09:02:04.342Z,1999.90
2022-07-26T09:04:41.637Z,1999.90
2022-07-26T09:07:19.755Z,1999.90
2022-07-26T09:10:11.763Z,1999.90
2022-07-26T09:12:40.487Z,1999.90
2022-07-26T09:15:21.006Z,1999.90
2022-07-26T09:17:51.778Z,1798.30
2022-07-26T09:20:28.676Z,1786.22
2022-07-26T09:23:01.549Z,1999.90
2022-07-26T09:25:34.393Z,1999.90
2022-07-26T09:28:03.583Z,1999.90
2022-07-26T09:30:32.668Z,1999.90
2022-07-26T09:33:05.688Z,1999.90
2022-07-26T09:35:51.079Z,1999.90
2022-07-26T09:38:19.804Z,1999.90
2022-07-26T09:40:50.964Z,1999.90
2022-07-26T09:43:23.906Z,1999.90
2022-07-26T09:46:06.374Z,1999.90
2022-07-26T09:49:07.069Z,1999.90
2022-07-26T09:51:38.793Z,1999.90
2022-07-26T09:54:06.964Z,1999.90
2022-07-26T09:56:49.368Z,1999.90
2022-07-26T09:59:19.880Z,1999.90
2022-07-26T10:01:48.473Z,1999.90
2022-07-26T10:04:16.973Z,1999.90
2022-07-26T10:06:45.446Z,1999.90
2022-07-26T10:09:14.653Z,1957.23
2022-07-26T10:12:05.267Z,1999.90
2022-07-26T10:14:52.448Z,1999.90
2022-07-26T10:17:31.171Z,1999.90
2022-07-26T10:20:16.856Z,1999.90
2022-07-26T10:22:47.512Z,1999.90
2022-07-26T10:25:35.399Z,1999.90
2022-07-26T10:28:03.058Z,1999.90
2022-07-26T10:30:40.070Z,1902.20
2022-07-26T10:33:10.446Z,1999.90
2022-07-26T10:35:41.432Z,1999.90
2022-07-26T10:38:15.338Z,1567.18
2022-07-26T10:41:08.178Z,1999.90
2022-07-26T10:43:41.111Z,1999.90
2022-07-26T10:46:18.735Z,1679.85
2022-07-26T10:49:04.044Z,1999.90
2022-07-26T10:51:40.169Z,1999.90
2022-07-26T10:54:10.718Z,1999.90
2022-07-26T10:56:39.959Z,1999.90
2022-07-26T10:59:07.930Z,1999.90
2022-07-26T11:01:41.282Z,1999.90
2022-07-26T11:04:25.991Z,1398.90
2022-07-26T11:06:53.712Z,1999.90
2022-07-26T11:09:21.521Z,1917.63
2022-07-26T11:11:52.660Z,1806.00
2022-07-26T11:14:20.406Z,1908.20
2022-07-26T11:16:50.461Z,1999.90
2022-07-26T11:19:19.547Z,1999.90
2022-07-26T11:21:54.573Z,1916.95
2022-07-26T11:24:22.414Z,1999.90
2022-07-26T11:26:50.009Z,1999.90
2022-07-26T11:29:38.281Z,1966.30
2022-07-26T11:32:21.900Z,1999.90
2022-07-26T11:35:00.470Z,1999.90
2022-07-26T11:37:28.530Z,1999.90
2022-07-26T11:39:56.560Z,1999.90
2022-07-26T11:42:24.476Z,1999.90
2022-07-26T11:44:54.319Z,1999.90
2022-07-26T11:47:29.906Z,1649.45
2022-07-26T11:50:18.262Z,1999.90
2022-07-26T11:52:53.357Z,1999.90
2022-07-26T11:55:31.384Z,1999.90
2022-07-26T11:58:06.772Z,1999.90
2022-07-26T12:00:34.686Z,1999.90
2022-07-26T12:03:02.309Z,1653.30
2022-07-26T12:05:33.536Z,1999.90
2022-07-26T12:08:04.614Z,1699.25
2022-07-26T12:10:33.235Z,1999.90
2022-07-26T12:13:15.935Z,1999.90
2022-07-26T12:15:52.298Z,1247.15
2022-07-26T12:18:31.444Z,1676.95
2022-07-26T12:21:08.199Z,1999.90
2022-07-26T12:23:49.821Z,1999.90
2022-07-26T12:26:30.989Z,1999.90
2022-07-26T12:29:19.192Z,1999.90
2022-07-26T12:32:00.194Z,1999.90
2022-07-26T12:34:28.304Z,1999.90
2022-07-26T12:36:55.734Z,1999.90
2022-07-26T12:39:23.805Z,1532.78
2022-07-26T12:41:52.663Z,1999.90
2022-07-26T12:44:23.082Z,1999.90
2022-07-26T12:46:50.793Z,1999.90
2022-07-26T12:49:18.438Z,1999.90
2022-07-26T12:51:46.061Z,1999.90
2022-07-26T12:54:14.351Z,1999.90
2022-07-26T12:56:42.367Z,1999.90
2022-07-26T12:59:17.752Z,1999.90
2022-07-26T13:01:45.823Z,1999.90
2022-07-26T13:04:13.750Z,1999.90
2022-07-26T13:06:41.430Z,1999.90
2022-07-26T13:09:08.893Z,1999.90
2022-07-26T13:11:36.486Z,1176.40
2022-07-26T13:14:03.978Z,1999.90
2022-07-26T13:16:31.815Z,1999.90
2022-07-26T13:18:59.342Z,1029.22
2022-07-26T13:21:27.044Z,1999.90
2022-07-26T13:24:02.403Z,1999.90
2022-07-26T13:26:30.067Z,1999.90
2022-07-26T13:28:59.051Z,1901.10
2022-07-26T13:31:26.761Z,1999.90
2022-07-26T13:33:54.572Z,1999.90
2022-07-26T13:36:22.222Z,1999.90
2022-07-26T13:38:49.949Z,1596.07
2022-07-26T13:41:17.660Z,1999.90
2022-07-26T13:43:46.546Z,1983.55
2022-07-26T13:46:14.338Z,1945.72
2022-07-26T13:49:00.046Z,1297.65
2022-07-26T13:51:53.630Z,1999.90
2022-07-26T13:54:22.734Z,611.42
2022-07-26T13:56:50.449Z,1999.90
2022-07-26T13:59:18.125Z,1585.53
2022-07-26T14:01:46.378Z,1999.90
2022-07-26T14:04:14.999Z,1720.10
2022-07-26T14:06:43.004Z,1599.53
2022-07-26T14:09:11.182Z,1974.47
2022-07-26T14:11:39.548Z,1377.05
2022-07-26T14:14:08.134Z,1999.90
2022-07-26T14:16:36.125Z,1999.90
2022-07-26T14:19:04.699Z,1432.37
2022-07-26T14:21:43.548Z,1999.90
2022-07-26T14:24:18.476Z,1678.25
2022-07-26T14:26:49.600Z,1618.85
2022-07-26T14:29:17.123Z,1999.90
2022-07-26T14:31:45.643Z,1599.57
2022-07-26T14:34:16.222Z,1821.60
2022-07-26T14:36:46.696Z,1999.90
2022-07-26T14:39:14.266Z,1999.90
2022-07-26T14:41:42.571Z,1799.38
2022-07-26T14:44:10.647Z,1999.90
2022-07-26T14:46:38.724Z,1101.95
2022-07-26T14:49:08.027Z,1999.90
2022-07-26T14:51:37.029Z,1999.90
2022-07-26T14:54:06.491Z,1999.90
2022-07-26T14:56:34.323Z,1999.90
2022-07-26T14:59:04.980Z,1999.90
2022-07-26T15:01:33.001Z,1999.90
2022-07-26T15:04:00.679Z,1999.90
2022-07-26T15:06:29.983Z,1999.90
2022-07-26T15:08:57.812Z,1999.90
2022-07-26T15:11:25.756Z,1919.65
2022-07-26T15:13:55.911Z,1999.90
2022-07-26T15:16:24.363Z,1250.90
2022-07-26T15:18:53.399Z,1999.90
2022-07-26T15:21:23.336Z,1229.65
2022-07-26T15:23:50.876Z,1999.90
2022-07-26T15:26:19.339Z,1734.43
2022-07-26T15:28:47.560Z,1109.32
2022-07-26T15:31:15.223Z,731.53
2022-07-26T15:33:43.680Z,1186.28
2022-07-26T15:36:11.786Z,1014.83
2022-07-26T15:38:44.740Z,1999.90
2022-07-26T15:41:13.679Z,1358.10
2022-07-26T15:43:48.986Z,1192.63
2022-07-26T15:46:17.382Z,899.03
2022-07-26T15:48:45.588Z,805.53
2022-07-26T15:51:15.608Z,1999.90
2022-07-26T15:53:46.749Z,1730.55
2022-07-26T15:56:14.601Z,1584.00
2022-07-26T15:58:42.038Z,1090.97
2022-07-26T16:01:09.653Z,1207.18
2022-07-26T16:03:37.084Z,1152.60
2022-07-26T16:06:06.102Z,1999.90
2022-07-26T16:08:43.075Z,479.55
2022-07-26T16:11:21.769Z,889.80
2022-07-26T16:13:49.520Z,1999.90
2022-07-26T16:16:17.215Z,1272.43
2022-07-26T16:18:48.841Z,1037.40
2022-07-26T16:21:17.326Z,1204.57
2022-07-26T16:23:44.992Z,117.60
2022-07-26T16:26:15.121Z,152.63
2022-07-26T16:28:42.977Z,849.95
2022-07-26T16:31:10.805Z,718.33
2022-07-26T16:33:45.805Z,120.63
2022-07-26T16:36:15.171Z,204.90
2022-07-26T16:38:42.803Z,821.67
2022-07-26T16:41:17.157Z,462.58
2022-07-26T16:43:45.356Z,411.63
2022-07-26T16:46:12.947Z,142.80
2022-07-26T16:48:40.701Z,1483.82
2022-07-26T16:51:08.357Z,362.15
2022-07-26T16:53:36.145Z,1205.47
2022-07-26T16:56:03.945Z,113.10
2022-07-26T16:58:31.582Z,161.07
2022-07-26T17:00:59.669Z,826.72
2022-07-26T17:03:27.307Z,108.87
2022-07-26T17:05:54.889Z,841.50
2022-07-26T17:08:23.106Z,1829.57
2022-07-26T17:10:51.361Z,298.08
2022-07-26T17:13:19.175Z,239.82
2022-07-26T17:15:46.879Z,467.10
2022-07-26T17:18:14.454Z,289.63
2022-07-26T17:20:42.164Z,234.60
2022-07-26T17:23:10.137Z,435.77
2022-07-26T17:25:38.752Z,616.53
2022-07-26T17:28:06.504Z,210.32
2022-07-26T17:30:34.240Z,202.40
2022-07-26T17:33:02.058Z,338.83
2022-07-26T17:35:29.614Z,1204.60
2022-07-26T17:37:57.332Z,350.08
2022-07-26T17:40:25.754Z,468.77
2022-07-26T17:42:53.499Z,344.52
2022-07-26T17:45:21.424Z,473.50
2022-07-26T17:47:49.096Z,284.08
2022-07-26T17:50:36.044Z,1342.32
2022-07-26T17:53:05.421Z,564.40
2022-07-26T17:55:33.027Z,411.10
2022-07-26T17:58:00.586Z,798.45
2022-07-26T18:00:29.082Z,765.45
2022-07-26T18:02:58.144Z,311.77
2022-07-26T18:05:33.123Z,337.50
2022-07-26T18:08:02.824Z,264.15
2022-07-26T18:10:31.985Z,228.87
2022-07-26T18:12:59.589Z,583.67
2022-07-26T18:15:27.205Z,149.70
2022-07-26T18:17:54.792Z,209.13
2022-07-26T18:20:24.382Z,350.23
2022-07-26T18:22:54.726Z,1357.57
2022-07-26T18:25:24.867Z,358.03
2022-07-26T18:27:54.050Z,332.58
2022-07-26T18:30:22.413Z,246.52
2022-07-26T18:32:50.020Z,269.50
2022-07-26T18:35:17.663Z,1999.90
2022-07-26T18:37:46.796Z,387.02
2022-07-26T18:40:14.442Z,250.48
2022-07-26T18:42:42.209Z,463.48
2022-07-26T18:45:11.219Z,943.20
2022-07-26T18:47:41.732Z,1369.05
2022-07-26T18:50:12.481Z,738.83
2022-07-26T18:52:46.017Z,1051.15
2022-07-26T18:55:16.252Z,1465.70
2022-07-26T18:57:44.748Z,1427.60
2022-07-26T19:00:15.366Z,751.83
2022-07-26T19:02:45.071Z,379.33
2022-07-26T19:05:13.795Z,1389.22
2022-07-26T19:07:42.514Z,1407.13
2022-07-26T19:10:10.654Z,1857.22
2022-07-26T19:12:38.836Z,1999.90
2022-07-26T19:15:08.566Z,576.67
2022-07-26T19:17:37.747Z,682.70
2022-07-26T19:20:07.418Z,1999.90
2022-07-26T19:22:35.664Z,1915.78
2022-07-26T19:25:03.959Z,764.03
2022-07-26T19:27:31.571Z,1069.82
2022-07-26T19:29:59.079Z,432.98
2022-07-26T19:32:30.461Z,995.42
2022-07-26T19:35:01.643Z,282.60
2022-07-26T19:37:29.600Z,557.25
2022-07-26T19:40:00.602Z,462.33
2022-07-26T19:42:30.774Z,328.23
2022-07-26T19:44:58.772Z,385.85
2022-07-26T19:47:26.972Z,273.63
2022-07-26T19:49:54.597Z,354.90
2022-07-26T19:52:22.120Z,401.70
2022-07-26T19:54:49.552Z,879.85
2022-07-26T19:57:19.834Z,279.77
2022-07-26T19:59:48.166Z,876.38
2022-07-26T20:02:16.336Z,693.63
2022-07-26T20:04:46.005Z,1399.43
2022-07-26T20:07:19.790Z,1089.47
2022-07-26T20:09:50.000Z,1623.03
2022-07-26T20:12:18.866Z,1973.80
2022-07-26T20:14:46.886Z,496.63
2022-07-26T20:17:15.248Z,524.63
2022-07-26T20:19:43.170Z,1965.95
2022-07-26T20:22:11.513Z,572.00
2022-07-26T20:24:39.751Z,1202.43
2022-07-26T20:27:07.790Z,255.85
2022-07-26T20:29:35.648Z,418.80
2022-07-26T20:32:03.551Z,265.93
2022-07-26T20:34:31.099Z,321.67
2022-07-26T20:36:58.666Z,747.05
2022-07-26T20:39:28.017Z,271.83
2022-07-26T20:41:55.563Z,379.50
2022-07-26T20:44:28.179Z,286.08
2022-07-26T20:46:56.277Z,1418.73
2022-07-26T20:49:23.919Z,371.38
2022-07-26T20:51:51.613Z,1710.45
2022-07-26T20:54:19.249Z,653.08
2022-07-26T20:56:46.838Z,1999.90
2022-07-26T20:59:14.982Z,1402.35
2022-07-26T21:01:43.977Z,1029.85
2022-07-26T21:04:12.212Z,442.63
2022-07-26T21:06:40.143Z,541.45
2022-07-26T21:09:09.795Z,510.20
2022-07-26T21:11:39.623Z,488.30
2022-07-26T21:14:07.385Z,298.48
2022-07-26T21:16:35.182Z,408.13
2022-07-26T21:19:03.917Z,483.38
2022-07-26T21:21:31.717Z,646.50
2022-07-26T21:23:59.134Z,978.78
2022-07-26T21:26:26.836Z,364.35
2022-07-26T21:28:54.315Z,433.50
2022-07-26T21:31:22.112Z,624.35
2022-07-26T21:33:49.698Z,577.70
2022-07-26T21:36:17.360Z,378.80
2022-07-26T21:38:44.931Z,422.75
2022-07-26T21:41:13.438Z,612.35
2022-07-26T21:43:41.748Z,470.77
2022-07-26T21:46:12.748Z,505.40
2022-07-26T21:48:41.620Z,738.40
2022-07-26T21:51:12.396Z,547.90
2022-07-26T21:53:40.245Z,662.42
2022-07-26T21:56:08.173Z,331.33
2022-07-26T21:58:36.836Z,593.95
2022-07-26T22:01:11.305Z,482.73
2022-07-26T22:03:40.816Z,238.95
2022-07-26T22:06:09.061Z,428.08
2022-07-26T22:08:37.888Z,538.60
2022-07-26T22:11:05.779Z,591.58
2022-07-26T22:13:33.796Z,604.60
2022-07-26T22:16:01.401Z,906.25
2022-07-26T22:18:29.122Z,534.45
2022-07-26T22:20:56.822Z,507.33
2022-07-26T22:23:30.367Z,345.50
2022-07-26T22:26:02.743Z,434.98
2022-07-26T22:28:32.174Z,363.42
2022-07-26T22:31:00.136Z,653.40
2022-07-26T22:33:27.715Z,420.40
2022-07-26T22:35:55.419Z,501.77
2022-07-26T22:38:23.088Z,496.55
2022-07-26T22:40:50.989Z,404.70
2022-07-26T22:43:18.711Z,423.05
2022-07-26T22:45:46.341Z,721.28
2022-07-26T22:48:14.015Z,237.35
2022-07-26T22:50:41.530Z,304.50
2022-07-26T22:53:09.220Z,294.70
2022-07-26T22:55:37.016Z,381.05
2022-07-26T22:58:04.741Z,318.02
2022-07-26T23:00:32.329Z,439.30
2022-07-26T23:02:59.946Z,444.70
2022-07-26T23:05:36.621Z,273.13
2022-07-26T23:08:45.173Z,524.90
2022-07-26T23:11:01.386Z,335.48
2022-07-26T23:13:29.086Z,476.77
2022-07-26T23:16:00.540Z,488.17
2022-07-26T23:18:29.411Z,313.35
2022-07-26T23:20:56.861Z,556.78
2022-07-26T23:23:25.317Z,427.70
2022-07-26T23:25:59.022Z,400.77
2022-07-26T23:28:37.311Z,332.27
2022-07-26T23:31:08.033Z,453.10
2022-07-26T23:33:51.977Z,429.83
2022-07-26T23:36:27.275Z,261.95
2022-07-26T23:38:55.971Z,598.05
2022-07-26T23:41:24.074Z,335.20
2022-07-26T23:43:52.180Z,285.85
2022-07-26T23:46:19.959Z,210.23
2022-07-26T23:48:48.033Z,342.33
2022-07-26T23:51:15.802Z,297.63
2022-07-26T23:53:43.712Z,240.53
2022-07-26T23:56:11.289Z,396.25
2022-07-26T23:58:38.873Z,559.88
